createdAt,value
2019-05-23T00:02:43.154Z,2.4
2019-05-23T00:04:42.680Z,2.4
2019-05-23T00:06:43.117Z,2.4
2019-05-23T04:12:52.854Z,3.7
2019-05-23T04:14:36.377Z,2.4
2019-05-23T04:27:10.871Z,2.4
2019-05-23T04:28:35.509Z,1.2
2019-05-23T04:36:45.715Z,1.2
2019-05-23T04:42:38.164Z,2.4
2019-05-23T04:48:15.038Z,2.4
2019-05-23T04:52:42.454Z,2.4
2019-05-23T04:57:10.413Z,2.4
2019-05-23T05:10:58.199Z,2.4
2019-05-23T05:12:10.584Z,1.2
2019-05-23T05:14:27.083Z,1.2
2019-05-23T05:18:35.608Z,2.4
2019-05-23T05:20:36.030Z,2.4
2019-05-23T05:22:36.618Z,2.4
2019-05-23T05:24:41.025Z,2.4
2019-05-23T05:26:36.687Z,0
2019-05-23T05:28:36.367Z,0
2019-05-23T05:30:35.966Z,2.4
2019-05-23T05:32:46.429Z,2.4
2019-05-23T05:34:36.448Z,2.4
2019-05-23T05:36:34.431Z,1.2
2019-05-23T05:38:36.037Z,1.2
2019-05-23T05:40:36.525Z,1.2
2019-05-23T05:42:36.064Z,1.2
2019-05-23T05:44:36.630Z,1.2
2019-05-23T05:46:36.312Z,0
2019-05-23T05:48:37.014Z,0
2019-05-23T05:50:36.669Z,0
2019-05-23T05:52:36.293Z,0
2019-05-23T05:54:35.929Z,0
2019-05-23T05:56:36.443Z,1.2
2019-05-23T05:58:36.240Z,1.2
2019-05-23T06:00:36.707Z,0
2019-05-23T06:02:36.251Z,0
2019-05-23T06:04:37.267Z,0
2019-05-23T06:06:35.294Z,0
2019-05-23T06:08:36.790Z,0
2019-05-23T06:10:36.359Z,1.2
2019-05-23T06:12:35.882Z,1.2
2019-05-23T06:14:36.462Z,1.2
2019-05-23T06:16:36.062Z,0
2019-05-23T06:18:36.779Z,0
2019-05-23T06:20:36.250Z,0
2019-05-23T06:22:36.854Z,0
2019-05-23T06:24:58.333Z,0
2019-05-23T06:26:37.000Z,1.2
2019-05-23T06:28:36.570Z,1.2
2019-05-23T06:30:36.034Z,2.4
2019-05-23T06:32:36.447Z,2.4
2019-05-23T06:34:36.005Z,2.4
2019-05-23T06:36:36.577Z,1.2
2019-05-23T06:38:36.311Z,1.2
2019-05-23T06:40:36.784Z,1.2
2019-05-23T06:42:36.476Z,1.2
2019-05-23T06:44:35.981Z,1.2
2019-05-23T06:46:36.526Z,1.2
2019-05-23T06:48:36.013Z,1.2
2019-05-23T06:50:37.049Z,2.4
2019-05-23T06:52:35.142Z,2.4
2019-05-23T06:54:36.746Z,2.4
2019-05-23T06:56:36.418Z,1.2
2019-05-23T06:58:36.009Z,1.2
2019-05-23T07:00:36.451Z,2.4
2019-05-23T07:02:35.997Z,2.4
2019-05-23T07:04:36.445Z,2.4
2019-05-23T07:06:35.913Z,2.4
2019-05-23T07:08:36.467Z,2.4
2019-05-23T07:10:36.061Z,1.2
2019-05-23T07:12:36.622Z,1.2
2019-05-23T07:14:36.110Z,1.2
2019-05-23T07:16:36.550Z,2.4
2019-05-23T07:18:36.232Z,2.4
2019-05-23T07:20:36.630Z,2.4
2019-05-23T07:22:36.282Z,2.4
2019-05-23T07:24:36.793Z,2.4
2019-05-23T07:26:36.388Z,2.4
2019-05-23T07:28:35.918Z,2.4
2019-05-23T07:30:36.425Z,3.7
2019-05-23T07:32:36.244Z,3.7
2019-05-23T07:34:36.804Z,3.7
2019-05-23T07:36:36.847Z,3.7
2019-05-23T07:38:35.049Z,3.7
2019-05-23T07:40:34.996Z,3.7
2019-05-23T07:42:36.512Z,3.7
2019-05-23T07:44:49.226Z,3.7
2019-05-23T07:46:36.549Z,2.4
2019-05-23T07:48:36.102Z,2.4
2019-05-23T07:50:36.699Z,4.9
2019-05-23T07:52:36.314Z,4.9
2019-05-23T07:54:36.877Z,4.9
2019-05-23T07:56:36.360Z,3.7
2019-05-23T07:58:35.882Z,3.7
2019-05-23T08:02:36.859Z,3.7
2019-05-23T08:04:36.358Z,3.7
2019-05-23T08:06:35.876Z,3.7
2019-05-23T08:08:36.450Z,3.7
2019-05-23T08:10:36.087Z,3.7
2019-05-23T08:12:36.600Z,3.7
2019-05-23T08:14:36.192Z,3.7
2019-05-23T08:16:36.866Z,2.4
2019-05-23T08:18:36.490Z,2.4
2019-05-23T08:20:35.998Z,4.9
2019-05-23T08:22:36.693Z,4.9
2019-05-23T08:24:36.271Z,4.9
2019-05-23T08:26:36.993Z,4.9
2019-05-23T08:28:36.505Z,4.9
2019-05-23T08:30:35.990Z,3.7
2019-05-23T08:32:36.473Z,3.7
2019-05-23T08:34:43.587Z,3.7
2019-05-23T08:36:36.031Z,3.7
2019-05-23T08:38:36.635Z,3.7
2019-05-23T08:40:36.084Z,6.1
2019-05-23T08:42:36.581Z,6.1
2019-05-23T08:44:36.087Z,6.1
2019-05-23T08:46:36.733Z,2.4
2019-05-23T08:48:36.253Z,2.4
2019-05-23T08:50:36.940Z,2.4
2019-05-23T08:52:36.486Z,2.4
2019-05-23T08:54:36.164Z,2.4
2019-05-23T08:56:36.749Z,6.1
2019-05-23T08:58:36.325Z,6.1
2019-05-23T09:00:36.101Z,2.4
2019-05-23T09:02:36.761Z,2.4
2019-05-23T09:04:36.290Z,2.4
2019-05-23T09:06:36.976Z,2.4
2019-05-23T09:08:36.603Z,2.4
2019-05-23T09:10:36.142Z,4.9
2019-05-23T09:12:36.652Z,4.9
2019-05-23T09:14:36.192Z,4.9
2019-05-23T09:16:36.727Z,2.4
2019-05-23T09:18:36.507Z,2.4
2019-05-23T09:20:36.000Z,2.4
2019-05-23T09:22:36.681Z,2.4
2019-05-23T09:24:36.183Z,2.4
2019-05-23T09:26:36.917Z,4.9
2019-05-23T09:28:36.584Z,4.9
2019-05-23T09:30:36.081Z,3.7
2019-05-23T09:32:36.685Z,3.7
2019-05-23T09:34:36.321Z,3.7
2019-05-23T09:36:35.834Z,3.7
2019-05-23T09:38:36.490Z,3.7
2019-05-23T09:52:39.838Z,4.9
2019-05-23T09:54:36.382Z,2.4
2019-05-23T09:56:36.004Z,2.4
2019-05-23T09:58:36.639Z,7.3
2019-05-23T10:00:36.238Z,7.3
2019-05-23T10:02:36.872Z,7.3
2019-05-23T10:04:36.539Z,7.3
2019-05-23T10:06:36.179Z,7.3
2019-05-23T10:08:36.791Z,4.9
2019-05-23T10:10:36.519Z,4.9
2019-05-23T10:12:35.933Z,6.1
2019-05-23T10:14:36.609Z,6.1
2019-05-23T10:16:35.927Z,6.1
2019-05-23T10:18:36.457Z,6.1
2019-05-23T10:20:35.904Z,6.1
2019-05-23T10:22:36.463Z,4.9
2019-05-23T10:24:36.100Z,4.9
2019-05-23T10:26:36.700Z,4.9
2019-05-23T10:28:36.374Z,7.3
2019-05-23T10:30:35.901Z,7.3
2019-05-23T10:32:36.427Z,3.7
2019-05-23T10:34:36.117Z,3.7
2019-05-23T10:36:36.820Z,3.7
2019-05-23T10:38:36.385Z,6.1
2019-05-23T10:40:36.536Z,6.1
2019-05-23T10:42:36.064Z,4.9
2019-05-23T10:44:36.570Z,4.9
2019-05-23T10:46:36.101Z,4.9
2019-05-23T10:48:36.655Z,6.1
2019-05-23T10:50:46.021Z,6.1
2019-05-23T10:52:36.489Z,6.1
2019-05-23T10:54:36.040Z,6.1
2019-05-23T10:56:36.403Z,6.1
2019-05-23T10:58:36.772Z,6.1
2019-05-23T11:00:36.299Z,6.1
2019-05-23T11:02:36.805Z,6.1
2019-05-23T11:04:36.226Z,6.1
2019-05-23T11:06:36.846Z,6.1
2019-05-23T11:08:36.390Z,3.7
2019-05-23T11:10:35.988Z,3.7
2019-05-23T11:12:36.465Z,6.1
2019-05-23T11:14:36.123Z,6.1
2019-05-23T11:16:36.738Z,6.1
2019-05-23T11:18:36.547Z,9.8
2019-05-23T11:20:37.126Z,9.8
2019-05-23T11:22:36.653Z,2.4
2019-05-23T11:24:36.501Z,2.4
2019-05-23T11:26:36.166Z,2.4
2019-05-23T11:28:36.706Z,7.3
2019-05-23T11:30:36.481Z,7.3
2019-05-23T11:32:35.863Z,6.1
2019-05-23T11:34:36.432Z,6.1
2019-05-23T11:36:37.847Z,6.1
2019-05-23T11:38:36.352Z,4.9
2019-05-23T11:40:35.790Z,4.9
2019-05-23T11:42:36.585Z,6.1
2019-05-23T11:44:36.188Z,6.1
2019-05-23T11:46:36.683Z,6.1
2019-05-23T11:48:36.535Z,7.3
2019-05-23T11:50:35.962Z,7.3
2019-05-23T11:52:36.288Z,4.9
2019-05-23T11:54:35.860Z,4.9
2019-05-23T11:56:36.236Z,4.9
2019-05-23T11:58:37.004Z,9.8
2019-05-23T12:02:36.685Z,9.8
2019-05-23T12:04:36.204Z,9.8
2019-05-23T12:06:57.124Z,9.8
2019-05-23T12:08:36.306Z,6.1
2019-05-23T12:10:35.906Z,6.1
2019-05-23T12:12:36.695Z,4.9
2019-05-23T12:14:36.508Z,4.9
2019-05-23T12:16:35.956Z,4.9
2019-05-23T12:18:36.533Z,2.4
2019-05-23T12:20:36.028Z,2.4
2019-05-23T12:22:36.854Z,4.9
2019-05-23T12:24:36.746Z,4.9
2019-05-23T12:26:36.363Z,4.9
2019-05-23T12:28:35.910Z,7.3
2019-05-23T12:30:36.475Z,7.3
2019-05-23T12:32:35.921Z,6.1
2019-05-23T12:34:36.552Z,6.1
2019-05-23T12:36:36.100Z,6.1
2019-05-23T12:38:36.740Z,4.9
2019-05-23T12:40:36.982Z,4.9
2019-05-23T12:42:36.464Z,6.1
2019-05-23T12:44:36.021Z,6.1
2019-05-23T12:46:36.754Z,6.1
2019-05-23T12:48:36.458Z,2.4
2019-05-23T12:50:36.125Z,2.4
2019-05-23T12:52:36.646Z,6.1
2019-05-23T12:54:36.252Z,6.1
2019-05-23T12:56:36.712Z,6.1
2019-05-23T12:58:36.401Z,7.3
2019-05-23T13:00:37.086Z,7.3
2019-05-23T13:02:36.786Z,7.3
2019-05-23T13:04:36.268Z,7.3
2019-05-23T13:06:35.845Z,7.3
2019-05-23T13:08:36.439Z,6.1
2019-05-23T13:10:35.965Z,6.1
2019-05-23T13:12:36.596Z,4.9
2019-05-23T13:14:36.186Z,4.9
2019-05-23T13:16:36.870Z,4.9
2019-05-23T13:18:36.524Z,4.9
2019-05-23T13:20:36.219Z,4.9
2019-05-23T13:22:36.697Z,2.4
2019-05-23T13:24:54.041Z,2.4
2019-05-23T13:26:36.665Z,2.4
2019-05-23T13:28:36.285Z,3.7
2019-05-23T13:30:35.985Z,3.7
2019-05-23T13:32:36.612Z,11
2019-05-23T13:34:36.509Z,11
2019-05-23T13:36:36.551Z,11
2019-05-23T13:38:34.600Z,6.1
2019-05-23T13:40:36.315Z,6.1
2019-05-23T13:42:35.970Z,4.9
2019-05-23T13:44:37.173Z,4.9
2019-05-23T13:46:37.243Z,4.9
2019-05-23T13:48:35.300Z,7.3
2019-05-23T13:50:36.683Z,7.3
2019-05-23T13:52:36.196Z,9.8
2019-05-23T13:54:37.835Z,9.8
2019-05-23T13:56:36.946Z,9.8
2019-05-23T13:58:36.656Z,4.9
2019-05-23T14:02:36.319Z,4.9
2019-05-23T14:04:35.970Z,4.9
2019-05-23T14:06:36.476Z,4.9
2019-05-23T14:08:35.985Z,3.7
2019-05-23T14:10:36.498Z,3.7
2019-05-23T14:12:36.046Z,4.9
2019-05-23T14:14:36.614Z,4.9
2019-05-23T14:16:36.230Z,4.9
2019-05-23T14:18:36.966Z,4.9
2019-05-23T14:20:36.587Z,4.9
2019-05-23T14:22:36.089Z,4.9
2019-05-23T14:24:38.868Z,4.9
2019-05-23T14:26:36.349Z,4.9
2019-05-23T14:28:35.871Z,6.1
2019-05-23T14:30:36.486Z,6.1
2019-05-23T14:32:36.142Z,6.1
2019-05-23T14:34:36.851Z,6.1
2019-05-23T14:36:36.418Z,6.1
2019-05-23T14:38:35.980Z,2.4
2019-05-23T14:40:36.395Z,2.4
2019-05-23T14:42:35.978Z,3.7
2019-05-23T14:44:36.575Z,3.7
2019-05-23T14:46:36.183Z,3.7
2019-05-23T14:48:37.274Z,3.7
2019-05-23T14:50:36.851Z,3.7
2019-05-23T14:52:36.292Z,4.9
2019-05-23T14:54:36.920Z,4.9
2019-05-23T14:56:36.425Z,4.9
2019-05-23T14:58:35.939Z,9.8
2019-05-23T15:00:36.479Z,9.8
2019-05-23T15:02:36.072Z,9.8
2019-05-23T15:04:36.606Z,9.8
2019-05-23T15:06:36.200Z,9.8
2019-05-23T15:08:52.775Z,6.1
2019-05-23T15:10:36.249Z,6.1
2019-05-23T15:12:36.861Z,3.7
2019-05-23T15:14:36.480Z,3.7
2019-05-23T15:16:36.026Z,3.7
2019-05-23T15:18:36.733Z,2.4
2019-05-23T15:20:36.416Z,2.4
2019-05-23T15:22:35.844Z,4.9
2019-05-23T15:24:36.427Z,4.9
2019-05-23T15:26:36.045Z,4.9
2019-05-23T15:28:36.507Z,4.9
2019-05-23T15:30:36.223Z,4.9
2019-05-23T15:32:36.584Z,3.7
2019-05-23T15:34:36.459Z,3.7
2019-05-23T15:36:35.902Z,3.7
2019-05-23T15:38:36.481Z,3.7
2019-05-23T15:40:35.875Z,3.7
2019-05-23T15:42:36.287Z,2.4
2019-05-23T15:44:36.845Z,2.4
2019-05-23T15:46:36.386Z,2.4
2019-05-23T15:48:35.836Z,2.4
2019-05-23T15:50:36.723Z,2.4
2019-05-23T15:52:36.173Z,0
2019-05-23T15:54:36.786Z,0
2019-05-23T15:56:36.200Z,0
2019-05-23T15:58:36.874Z,2.4
2019-05-23T16:02:36.641Z,2.4
2019-05-23T16:04:36.134Z,2.4
2019-05-23T16:06:37.311Z,2.4
2019-05-23T16:08:35.810Z,2.4
2019-05-23T16:10:36.518Z,2.4
2019-05-23T16:12:36.157Z,2.4
2019-05-23T16:14:36.647Z,2.4
2019-05-23T16:16:36.212Z,2.4
2019-05-23T16:18:37.547Z,1.2
2019-05-23T16:20:35.923Z,1.2
2019-05-23T16:22:36.622Z,2.4
2019-05-23T16:24:36.208Z,2.4
2019-05-23T16:26:36.784Z,2.4
2019-05-23T16:28:36.208Z,1.2
2019-05-23T16:30:36.817Z,1.2
2019-05-23T16:32:36.275Z,2.4
2019-05-23T16:34:36.829Z,2.4
2019-05-23T16:36:36.316Z,2.4
2019-05-23T16:38:36.927Z,3.7
2019-05-23T16:40:36.378Z,3.7
2019-05-23T16:42:35.860Z,2.4
2019-05-23T16:44:36.362Z,2.4
2019-05-23T16:46:35.826Z,2.4
2019-05-23T16:48:36.346Z,1.2
2019-05-23T16:50:36.723Z,1.2
2019-05-23T16:52:36.104Z,1.2
2019-05-23T16:54:36.635Z,1.2
2019-05-23T16:56:36.294Z,1.2
2019-05-23T16:58:36.784Z,2.4
2019-05-23T17:00:36.255Z,2.4
2019-05-23T17:02:35.788Z,2.4
2019-05-23T17:04:36.741Z,2.4
2019-05-23T17:06:34.831Z,2.4
2019-05-23T17:08:34.714Z,0
2019-05-23T17:10:36.100Z,0
2019-05-23T17:12:36.631Z,1.2
2019-05-23T17:14:36.159Z,1.2
2019-05-23T17:16:37.012Z,1.2
2019-05-23T17:18:36.672Z,0
2019-05-23T17:20:36.251Z,0
2019-05-23T17:22:36.762Z,0
2019-05-23T17:24:40.885Z,0
2019-05-23T17:26:36.599Z,0
2019-05-23T17:28:36.215Z,0
2019-05-23T17:30:37.175Z,0
2019-05-23T17:32:36.603Z,0
2019-05-23T17:34:36.375Z,0
2019-05-23T17:36:35.830Z,0
2019-05-23T17:38:36.301Z,0
2019-05-23T17:40:35.879Z,0
2019-05-23T17:42:36.473Z,0
2019-05-23T17:44:36.195Z,0
2019-05-23T17:46:36.930Z,0
2019-05-23T17:48:36.443Z,1.2
2019-05-23T17:50:36.035Z,1.2
2019-05-23T17:52:36.516Z,2.4
2019-05-23T17:54:36.015Z,2.4
2019-05-23T17:56:36.945Z,2.4
2019-05-23T17:58:36.522Z,3.7
2019-05-23T18:00:35.905Z,3.7
2019-05-23T18:02:36.344Z,3.7
2019-05-23T18:04:36.680Z,3.7
2019-05-23T18:06:36.212Z,3.7
2019-05-23T18:08:36.699Z,2.4
2019-05-23T18:10:46.815Z,2.4
2019-05-23T18:12:36.607Z,2.4
2019-05-23T18:14:36.151Z,2.4
2019-05-23T18:16:36.620Z,2.4
2019-05-23T18:18:36.321Z,2.4
2019-05-23T18:20:36.743Z,2.4
2019-05-23T18:22:36.517Z,2.4
2019-05-23T18:24:35.971Z,2.4
2019-05-23T18:26:36.509Z,2.4
2019-05-23T18:28:35.940Z,2.4
2019-05-23T18:30:36.738Z,2.4
2019-05-23T18:32:36.103Z,2.4
2019-05-23T18:34:36.667Z,2.4
2019-05-23T18:36:36.156Z,2.4
2019-05-23T18:38:36.800Z,2.4
2019-05-23T18:40:36.353Z,2.4
2019-05-23T18:42:35.817Z,2.4
2019-05-23T18:44:36.242Z,2.4
2019-05-23T18:46:38.632Z,2.4
2019-05-23T18:48:36.176Z,3.7
2019-05-23T18:50:36.829Z,3.7
2019-05-23T18:52:36.285Z,1.2
2019-05-23T18:54:36.886Z,1.2
2019-05-23T18:56:36.338Z,1.2
2019-05-23T18:58:35.921Z,2.4
2019-05-23T19:00:36.454Z,2.4
2019-05-23T19:02:35.919Z,2.4
2019-05-23T19:04:36.333Z,2.4
2019-05-23T19:06:36.743Z,2.4
2019-05-23T19:08:36.279Z,3.7
2019-05-23T19:10:36.795Z,3.7
2019-05-23T19:12:36.216Z,3.7
2019-05-23T19:14:36.813Z,3.7
2019-05-23T19:16:36.371Z,3.7
2019-05-23T19:18:36.007Z,3.7
2019-05-23T19:20:36.271Z,3.7
2019-05-23T19:22:36.680Z,2.4
2019-05-23T19:24:36.022Z,2.4
2019-05-23T19:26:36.670Z,2.4
2019-05-23T19:28:36.343Z,2.4
2019-05-23T19:30:35.951Z,2.4
2019-05-23T19:32:36.348Z,3.7
2019-05-23T19:34:35.809Z,3.7
2019-05-23T19:36:36.449Z,3.7
2019-05-23T19:38:36.214Z,1.2
2019-05-23T19:40:37.124Z,1.2
2019-05-23T19:42:36.721Z,2.4
2019-05-23T19:44:36.327Z,2.4
2019-05-23T19:46:36.018Z,2.4
2019-05-23T19:48:36.564Z,2.4
2019-05-23T19:50:36.142Z,2.4
2019-05-23T19:52:36.408Z,1.2
2019-05-23T19:54:36.008Z,1.2
2019-05-23T19:56:36.479Z,1.2
2019-05-23T19:58:36.052Z,2.4
2019-05-23T20:00:36.583Z,2.4
2019-05-23T20:02:35.862Z,2.4
2019-05-23T20:04:44.354Z,2.4
2019-05-23T20:06:49.333Z,2.4
2019-05-23T20:08:42.758Z,2.4
2019-05-23T20:10:45.148Z,2.4
2019-05-23T20:12:44.679Z,2.4
2019-05-23T20:14:45.341Z,2.4
2019-05-23T20:16:44.899Z,1.2
2019-05-23T20:18:44.561Z,1.2
2019-05-23T20:20:45.099Z,1.2
2019-05-23T20:22:44.670Z,1.2
2019-05-23T20:24:45.345Z,1.2
2019-05-23T20:26:45.237Z,1.2
2019-05-23T20:28:44.859Z,1.2
2019-05-23T20:30:45.289Z,2.4
2019-05-23T20:32:44.846Z,2.4
2019-05-23T20:34:45.464Z,2.4
2019-05-23T20:36:45.449Z,1.2
2019-05-23T20:38:43.695Z,1.2
2019-05-23T20:40:43.492Z,1.2
2019-05-23T20:42:45.048Z,1.2
2019-05-23T20:44:44.837Z,1.2
2019-05-23T20:46:44.377Z,1.2
2019-05-23T20:48:45.149Z,1.2
2019-05-23T20:50:44.595Z,1.2
2019-05-23T20:52:45.061Z,1.2
2019-05-23T20:54:44.760Z,1.2
2019-05-23T20:56:45.243Z,1.2
2019-05-23T20:58:44.774Z,1.2
2019-05-23T21:00:45.153Z,1.2
2019-05-23T21:02:44.546Z,1.2
2019-05-23T21:04:45.222Z,1.2
2019-05-23T21:06:44.839Z,2.4
2019-05-23T21:08:45.325Z,2.4
2019-05-23T21:10:44.899Z,1.2
2019-05-23T21:12:44.345Z,1.2
2019-05-23T21:14:44.906Z,1.2
2019-05-23T21:16:44.322Z,1.2
2019-05-23T21:18:44.864Z,1.2
2019-05-23T21:20:44.382Z,1.2
2019-05-23T21:22:45.009Z,1.2
2019-05-23T21:24:44.597Z,1.2
2019-05-23T21:26:44.965Z,2.4
2019-05-23T21:28:44.639Z,2.4
2019-05-23T21:30:45.050Z,1.2
2019-05-23T21:32:44.585Z,1.2
2019-05-23T21:34:45.046Z,1.2
2019-05-23T21:36:44.540Z,3.7
2019-05-23T21:38:45.060Z,3.7
2019-05-23T21:40:44.675Z,3.7
2019-05-23T21:42:48.887Z,3.7
2019-05-23T21:44:44.320Z,3.7
2019-05-23T21:54:37.219Z,3.7
2019-05-23T21:56:36.718Z,3.7
2019-05-23T21:58:37.215Z,3.7
2019-05-23T22:00:39.206Z,3.7
2019-05-23T22:02:35.238Z,3.7
2019-05-23T22:04:44.555Z,3.7
2019-05-23T22:06:48.076Z,3.7
2019-05-23T22:08:44.719Z,3.7
2019-05-23T22:10:44.351Z,3.7
2019-05-23T22:12:44.957Z,3.7
2019-05-23T22:14:44.484Z,3.7
2019-05-23T22:16:44.966Z,3.7
2019-05-23T22:18:44.732Z,3.7
2019-05-23T22:20:44.398Z,3.7
2019-05-23T22:22:45.072Z,3.7
2019-05-23T22:26:44.625Z,3.7
2019-05-23T22:28:44.060Z,3.7
2019-05-23T22:30:44.585Z,3.7
2019-05-23T22:32:44.497Z,2.4
2019-05-23T22:34:44.982Z,2.4
2019-05-23T22:36:44.308Z,2.4
2019-05-23T22:38:44.968Z,2.4
2019-05-23T22:40:44.519Z,2.4
2019-05-23T22:42:44.946Z,2.4
2019-05-23T22:44:44.477Z,2.4
2019-05-23T22:46:44.952Z,2.4
2019-05-23T22:48:44.561Z,2.4
2019-05-23T22:50:44.053Z,2.4
2019-05-23T22:52:44.646Z,3.7
2019-05-23T22:54:44.263Z,3.7
2019-05-23T22:56:44.760Z,2.4
2019-05-23T22:58:44.469Z,2.4
2019-05-23T23:00:44.957Z,2.4
2019-05-23T23:02:46.930Z,2.4
2019-05-23T23:04:43.027Z,2.4
2019-05-23T23:06:44.383Z,2.4
2019-05-23T23:08:44.924Z,2.4
2019-05-23T23:10:44.518Z,2.4
2019-05-23T23:12:44.933Z,3.7
2019-05-23T23:14:44.413Z,3.7
2019-05-23T23:16:44.886Z,3.7
2019-05-23T23:18:44.620Z,3.7
2019-05-23T23:20:46.863Z,3.7
2019-05-23T23:22:44.415Z,2.4
2019-05-23T23:24:44.876Z,2.4
2019-05-23T23:26:44.341Z,2.4
2019-05-23T23:28:44.801Z,2.4
2019-05-23T23:30:44.308Z,2.4
2019-05-23T23:32:44.812Z,2.4
2019-05-23T23:34:44.817Z,2.4
2019-05-23T23:36:42.768Z,2.4
2019-05-23T23:38:42.703Z,2.4
2019-05-23T23:40:44.393Z,2.4
2019-05-23T23:42:44.921Z,2.4
2019-05-23T23:44:44.375Z,2.4
2019-05-23T23:46:45.115Z,1.2
2019-05-23T23:48:44.623Z,1.2
2019-05-23T23:50:44.316Z,1.2
2019-05-23T23:52:45.070Z,2.4
2019-05-23T23:54:44.659Z,2.4
2019-05-23T23:56:44.127Z,2.4
2019-05-23T23:58:44.678Z,2.4
